sensor_id;sensor_type;location;lat;lon;timestamp;pressure;altitude;pressure_sealevel;temperature;humidity
58879;BME280;44660;42.664;23.266;2023-02-28T00:00:23;94959.03;;;7.51;76.43
58879;BME280;44660;42.664;23.266;2023-02-28T00:02:49;95000.66;;;7.76;76.38
58879;BME280;44660;42.664;23.266;2023-02-28T00:05:18;94995.22;;;7.64;76.43
58879;BME280;44660;42.664;23.266;2023-02-28T00:07:44;95000.03;;;7.74;76.48
58879;BME280;44660;42.664;23.266;2023-02-28T00:10:18;94966.81;;;7.46;76.41
58879;BME280;44660;42.664;23.266;2023-02-28T00:12:49;95000.47;;;7.71;76.35
58879;BME280;44660;42.664;23.266;2023-02-28T00:15:15;95006.19;;;7.68;76.46
58879;BME280;44660;42.664;23.266;2023-02-28T00:17:42;94993.16;;;7.66;76.30
58879;BME280;44660;42.664;23.266;2023-02-28T00:20:09;94999.63;;;7.77;76.24
58879;BME280;44660;42.664;23.266;2023-02-28T00:22:42;95003.47;;;7.81;76.00
58879;BME280;44660;42.664;23.266;2023-02-28T00:25:09;94985.69;;;7.57;75.63
58879;BME280;44660;42.664;23.266;2023-02-28T00:27:36;95016.69;;;7.81;75.29
58879;BME280;44660;42.664;23.266;2023-02-28T00:30:02;95016.25;;;7.91;75.11
58879;BME280;44660;42.664;23.266;2023-02-28T00:32:29;94983.56;;;7.72;74.71
58879;BME280;44660;42.664;23.266;2023-02-28T00:34:55;94998.41;;;7.73;74.90
58879;BME280;44660;42.664;23.266;2023-02-28T00:37:20;94990.91;;;7.70;75.38
58879;BME280;44660;42.664;23.266;2023-02-28T00:39:46;95002.38;;;7.89;75.54
58879;BME280;44660;42.664;23.266;2023-02-28T00:42:11;94996.28;;;7.89;74.96
58879;BME280;44660;42.664;23.266;2023-02-28T00:44:37;94984.72;;;7.83;74.75
58879;BME280;44660;42.664;23.266;2023-02-28T00:47:02;94994.34;;;7.71;75.22
58879;BME280;44660;42.664;23.266;2023-02-28T00:49:28;94990.53;;;7.66;75.23
58879;BME280;44660;42.664;23.266;2023-02-28T00:51:54;95008.59;;;7.76;75.39
58879;BME280;44660;42.664;23.266;2023-02-28T00:54:21;95009.94;;;7.85;75.58
58879;BME280;44660;42.664;23.266;2023-02-28T00:56:47;94975.38;;;7.48;75.60
58879;BME280;44660;42.664;23.266;2023-02-28T00:59:14;94977.03;;;7.43;75.86
58879;BME280;44660;42.664;23.266;2023-02-28T01:01:40;94984.66;;;7.58;76.10
58879;BME280;44660;42.664;23.266;2023-02-28T01:04:05;94937.97;;;7.38;76.11
58879;BME280;44660;42.664;23.266;2023-02-28T01:06:31;94983.03;;;7.63;75.85
58879;BME280;44660;42.664;23.266;2023-02-28T01:08:57;94968.50;;;7.41;76.33
58879;BME280;44660;42.664;23.266;2023-02-28T01:11:23;95013.22;;;7.49;76.80
58879;BME280;44660;42.664;23.266;2023-02-28T01:13:48;94978.34;;;7.27;77.25
58879;BME280;44660;42.664;23.266;2023-02-28T01:16:13;95009.53;;;7.50;77.05
58879;BME280;44660;42.664;23.266;2023-02-28T01:18:39;95020.75;;;7.52;76.52
58879;BME280;44660;42.664;23.266;2023-02-28T01:21:10;95000.31;;;7.21;76.98
58879;BME280;44660;42.664;23.266;2023-02-28T01:23:36;95016.94;;;7.34;77.44
58879;BME280;44660;42.664;23.266;2023-02-28T01:26:10;95011.22;;;7.38;77.39
58879;BME280;44660;42.664;23.266;2023-02-28T01:28:37;94997.47;;;7.29;77.12
58879;BME280;44660;42.664;23.266;2023-02-28T01:31:02;95006.97;;;7.37;76.84
58879;BME280;44660;42.664;23.266;2023-02-28T01:33:28;95004.78;;;7.27;76.98
58879;BME280;44660;42.664;23.266;2023-02-28T01:36:00;95006.63;;;7.26;77.08
58879;BME280;44660;42.664;23.266;2023-02-28T01:38:26;95007.66;;;7.18;77.47
58879;BME280;44660;42.664;23.266;2023-02-28T01:40:52;95000.38;;;7.07;77.46
58879;BME280;44660;42.664;23.266;2023-02-28T01:43:26;94969.56;;;6.81;77.34
58879;BME280;44660;42.664;23.266;2023-02-28T01:45:53;95022.75;;;7.11;77.43
58879;BME280;44660;42.664;23.266;2023-02-28T01:48:27;94996.53;;;7.03;77.26
58879;BME280;44660;42.664;23.266;2023-02-28T01:50:55;95014.63;;;7.06;76.79
58879;BME280;44660;42.664;23.266;2023-02-28T01:53:31;95023.63;;;6.98;76.84
58879;BME280;44660;42.664;23.266;2023-02-28T01:55:57;95000.59;;;7.12;76.76
58879;BME280;44660;42.664;23.266;2023-02-28T01:58:23;95024.34;;;7.19;76.27
58879;BME280;44660;42.664;23.266;2023-02-28T02:00:49;95023.72;;;7.17;76.07
58879;BME280;44660;42.664;23.266;2023-02-28T02:03:16;95026.38;;;7.17;76.33
58879;BME280;44660;42.664;23.266;2023-02-28T02:05:44;94923.91;;;6.60;76.01
58879;BME280;44660;42.664;23.266;2023-02-28T02:08:16;95013.38;;;7.15;76.41
58879;BME280;44660;42.664;23.266;2023-02-28T02:10:46;94980.91;;;6.95;76.13
58879;BME280;44660;42.664;23.266;2023-02-28T02:18:59;95008.84;;;7.29;75.93
58879;BME280;44660;42.664;23.266;2023-02-28T02:32:33;95007.25;;;7.22;76.81
58879;BME280;44660;42.664;23.266;2023-02-28T02:35:23;95010.25;;;7.32;76.68
58879;BME280;44660;42.664;23.266;2023-02-28T02:38:14;95019.81;;;7.33;76.93
58879;BME280;44660;42.664;23.266;2023-02-28T02:40:47;95020.41;;;7.35;76.64
58879;BME280;44660;42.664;23.266;2023-02-28T02:45:54;94950.81;;;6.89;76.11
58879;BME280;44660;42.664;23.266;2023-02-28T02:48:23;95012.91;;;7.32;76.41
58879;BME280;44660;42.664;23.266;2023-02-28T02:50:54;94967.03;;;7.06;76.46
58879;BME280;44660;42.664;23.266;2023-02-28T02:53:25;95016.94;;;7.34;76.29
58879;BME280;44660;42.664;23.266;2023-02-28T02:55:54;95008.41;;;7.32;76.49
58879;BME280;44660;42.664;23.266;2023-02-28T02:58:24;95024.66;;;7.36;76.64
58879;BME280;44660;42.664;23.266;2023-02-28T03:00:54;95028.56;;;7.33;76.41
58879;BME280;44660;42.664;23.266;2023-02-28T03:03:21;95013.31;;;7.29;76.56
58879;BME280;44660;42.664;23.266;2023-02-28T03:05:55;95013.13;;;7.30;76.28
58879;BME280;44660;42.664;23.266;2023-02-28T03:08:21;94982.06;;;7.06;76.35
58879;BME280;44660;42.664;23.266;2023-02-28T03:10:51;95034.91;;;7.26;76.84
58879;BME280;44660;42.664;23.266;2023-02-28T03:27:09;95063.66;;;7.02;77.34
58879;BME280;44660;42.664;23.266;2023-02-28T03:29:44;95058.19;;;7.03;77.44
58879;BME280;44660;42.664;23.266;2023-02-28T03:35:37;95007.00;;;6.71;77.32
58879;BME280;44660;42.664;23.266;2023-02-28T03:38:18;95015.13;;;6.69;77.64
58879;BME280;44660;42.664;23.266;2023-02-28T03:40:49;95068.75;;;7.03;77.65
58879;BME280;44660;42.664;23.266;2023-02-28T03:43:22;95067.97;;;6.90;77.99
58879;BME280;44660;42.664;23.266;2023-02-28T03:45:50;95063.06;;;6.86;77.92
58879;BME280;44660;42.664;23.266;2023-02-28T03:48:22;95038.72;;;6.71;78.12
58879;BME280;44660;42.664;23.266;2023-02-28T03:50:52;95068.34;;;7.00;78.10
58879;BME280;44660;42.664;23.266;2023-02-28T03:53:27;95023.28;;;6.68;78.15
58879;BME280;44660;42.664;23.266;2023-02-28T03:56:22;95077.34;;;6.72;78.51
58879;BME280;44660;42.664;23.266;2023-02-28T04:01:28;95086.91;;;6.53;79.65
58879;BME280;44660;42.664;23.266;2023-02-28T04:03:55;95068.00;;;6.63;80.06
58879;BME280;44660;42.664;23.266;2023-02-28T04:06:22;95034.50;;;6.30;79.71
58879;BME280;44660;42.664;23.266;2023-02-28T04:08:49;95070.84;;;6.68;79.37
58879;BME280;44660;42.664;23.266;2023-02-28T04:11:22;95065.97;;;6.65;79.56
58879;BME280;44660;42.664;23.266;2023-02-28T04:13:49;95046.06;;;6.56;79.43
58879;BME280;44660;42.664;23.266;2023-02-28T04:16:15;94999.56;;;6.01;79.44
58879;BME280;44660;42.664;23.266;2023-02-28T04:18:41;95058.69;;;6.40;79.27
58879;BME280;44660;42.664;23.266;2023-02-28T04:21:10;95065.16;;;6.51;79.53
58879;BME280;44660;42.664;23.266;2023-02-28T04:23:36;95042.81;;;6.27;79.98
58879;BME280;44660;42.664;23.266;2023-02-28T04:26:02;95011.13;;;6.27;79.96
58879;BME280;44660;42.664;23.266;2023-02-28T04:28:29;95034.91;;;6.40;79.91
58879;BME280;44660;42.664;23.266;2023-02-28T04:30:59;95025.16;;;6.34;79.67
58879;BME280;44660;42.664;23.266;2023-02-28T04:33:25;95024.91;;;6.42;79.21
58879;BME280;44660;42.664;23.266;2023-02-28T04:36:07;95069.59;;;6.77;79.38
58879;BME280;44660;42.664;23.266;2023-02-28T04:38:38;95039.13;;;6.54;79.20
58879;BME280;44660;42.664;23.266;2023-02-28T04:41:05;95082.59;;;6.85;79.25
58879;BME280;44660;42.664;23.266;2023-02-28T04:43:31;95081.81;;;6.78;79.17
58879;BME280;44660;42.664;23.266;2023-02-28T04:46:00;95084.25;;;6.73;79.49
58879;BME280;44660;42.664;23.266;2023-02-28T04:48:28;95091.16;;;6.67;79.72
58879;BME280;44660;42.664;23.266;2023-02-28T04:50:54;95093.19;;;6.59;79.58
58879;BME280;44660;42.664;23.266;2023-02-28T04:53:19;95045.66;;;6.45;79.29
58879;BME280;44660;42.664;23.266;2023-02-28T04:55:45;95093.59;;;6.82;79.16
58879;BME280;44660;42.664;23.266;2023-02-28T04:58:12;95081.41;;;6.61;79.38
58879;BME280;44660;42.664;23.266;2023-02-28T05:00:38;95064.34;;;6.57;79.03
58879;BME280;44660;42.664;23.266;2023-02-28T05:03:04;95092.19;;;6.73;78.91
58879;BME280;44660;42.664;23.266;2023-02-28T05:05:29;95107.22;;;6.79;78.63
58879;BME280;44660;42.664;23.266;2023-02-28T05:07:55;95109.25;;;6.77;78.59
58879;BME280;44660;42.664;23.266;2023-02-28T05:10:22;95102.13;;;6.84;78.12
58879;BME280;44660;42.664;23.266;2023-02-28T05:12:48;95076.53;;;6.65;78.18
58879;BME280;44660;42.664;23.266;2023-02-28T05:15:14;95061.50;;;6.45;78.01
58879;BME280;44660;42.664;23.266;2023-02-28T05:17:40;95008.69;;;5.98;78.52
58879;BME280;44660;42.664;23.266;2023-02-28T05:20:06;95098.09;;;6.62;78.52
58879;BME280;44660;42.664;23.266;2023-02-28T05:22:32;95113.72;;;6.70;78.38
58879;BME280;44660;42.664;23.266;2023-02-28T05:24:57;95041.59;;;6.23;77.75
58879;BME280;44660;42.664;23.266;2023-02-28T05:27:23;95116.97;;;6.85;77.68
58879;BME280;44660;42.664;23.266;2023-02-28T05:29:49;95091.16;;;6.61;77.70
58879;BME280;44660;42.664;23.266;2023-02-28T05:32:14;95077.38;;;6.45;77.69
58879;BME280;44660;42.664;23.266;2023-02-28T05:34:41;95129.78;;;6.75;77.62
58879;BME280;44660;42.664;23.266;2023-02-28T05:37:11;95119.22;;;6.68;77.42
58879;BME280;44660;42.664;23.266;2023-02-28T05:39:37;95131.81;;;6.86;77.35
58879;BME280;44660;42.664;23.266;2023-02-28T05:42:02;95143.22;;;6.87;77.00
58879;BME280;44660;42.664;23.266;2023-02-28T05:44:28;95113.72;;;6.70;77.06
58879;BME280;44660;42.664;23.266;2023-02-28T05:46:54;95139.53;;;6.88;76.81
58879;BME280;44660;42.664;23.266;2023-02-28T05:49:19;95080.78;;;6.52;77.33
58879;BME280;44660;42.664;23.266;2023-02-28T05:51:45;95142.41;;;6.80;77.55
58879;BME280;44660;42.664;23.266;2023-02-28T05:54:10;95118.63;;;6.73;77.36
58879;BME280;44660;42.664;23.266;2023-02-28T05:56:36;95133.25;;;6.96;76.56
58879;BME280;44660;42.664;23.266;2023-02-28T05:59:04;95130.59;;;6.96;76.35
58879;BME280;44660;42.664;23.266;2023-02-28T06:01:36;95120.03;;;6.82;76.56
58879;BME280;44660;42.664;23.266;2023-02-28T06:04:03;95108.25;;;6.78;76.16
58879;BME280;44660;42.664;23.266;2023-02-28T06:06:29;95104.59;;;6.79;76.28
58879;BME280;44660;42.664;23.266;2023-02-28T06:08:56;95082.22;;;6.55;76.15
58879;BME280;44660;42.664;23.266;2023-02-28T06:11:21;95150.09;;;6.88;76.38
58879;BME280;44660;42.664;23.266;2023-02-28T06:13:53;95132.63;;;6.87;76.10
58879;BME280;44660;42.664;23.266;2023-02-28T06:16:19;95140.16;;;6.90;76.48
58879;BME280;44660;42.664;23.266;2023-02-28T06:18:45;95119.63;;;6.79;76.47
58879;BME280;44660;42.664;23.266;2023-02-28T06:21:12;95102.56;;;6.75;76.72
58879;BME280;44660;42.664;23.266;2023-02-28T06:23:37;95140.16;;;7.03;76.72
58879;BME280;44660;42.664;23.266;2023-02-28T06:26:03;95145.59;;;7.15;76.16
58879;BME280;44660;42.664;23.266;2023-02-28T06:28:28;95145.19;;;7.12;75.99
58879;BME280;44660;42.664;23.266;2023-02-28T06:30:54;95116.56;;;6.95;75.90
58879;BME280;44660;42.664;23.266;2023-02-28T06:33:20;95118.78;;;6.92;75.62
58879;BME280;44660;42.664;23.266;2023-02-28T06:35:51;95150.91;;;7.02;75.50
58879;BME280;44660;42.664;23.266;2023-02-28T06:38:17;95160.28;;;7.11;75.70
58879;BME280;44660;42.664;23.266;2023-02-28T06:40:43;95160.66;;;7.08;75.94
58879;BME280;44660;42.664;23.266;2023-02-28T06:43:09;95141.78;;;6.84;76.12
58879;BME280;44660;42.664;23.266;2023-02-28T06:45:41;95160.06;;;6.93;76.76
58879;BME280;44660;42.664;23.266;2023-02-28T06:48:07;95173.69;;;7.03;76.77
58879;BME280;44660;42.664;23.266;2023-02-28T06:50:32;95131.22;;;6.71;76.82
58879;BME280;44660;42.664;23.266;2023-02-28T06:52:58;95155.38;;;7.08;76.42
58879;BME280;44660;42.664;23.266;2023-02-28T06:55:23;95167.19;;;7.19;76.23
58879;BME280;44660;42.664;23.266;2023-02-28T06:57:49;95115.56;;;6.90;75.69
58879;BME280;44660;42.664;23.266;2023-02-28T07:00:16;95096.84;;;6.78;75.73
58879;BME280;44660;42.664;23.266;2023-02-28T07:02:41;95172.22;;;7.27;75.87
58879;BME280;44660;42.664;23.266;2023-02-28T07:05:07;95145.59;;;7.15;75.60
58879;BME280;44660;42.664;23.266;2023-02-28T07:07:33;95154.16;;;7.17;75.62
58879;BME280;44660;42.664;23.266;2023-02-28T07:09:59;95176.88;;;7.39;75.73
58879;BME280;44660;42.664;23.266;2023-02-28T07:12:24;95168.16;;;7.38;75.89
58879;BME280;44660;42.664;23.266;2023-02-28T07:14:50;95142.56;;;7.05;76.26
58879;BME280;44660;42.664;23.266;2023-02-28T07:17:16;95154.53;;;7.21;76.54
58879;BME280;44660;42.664;23.266;2023-02-28T07:19:41;95164.09;;;7.35;76.57
58879;BME280;44660;42.664;23.266;2023-02-28T07:22:07;95138.47;;;7.16;76.78
58879;BME280;44660;42.664;23.266;2023-02-28T07:24:32;95158.81;;;7.35;76.66
58879;BME280;44660;42.664;23.266;2023-02-28T07:26:58;95172.34;;;7.66;75.97
58879;BME280;44660;42.664;23.266;2023-02-28T07:29:25;95176.81;;;7.65;75.88
58879;BME280;44660;42.664;23.266;2023-02-28T07:31:50;95152.41;;;7.63;75.56
58879;BME280;44660;42.664;23.266;2023-02-28T07:34:18;95179.22;;;7.80;75.27
58879;BME280;44660;42.664;23.266;2023-02-28T07:36:44;95175.59;;;7.75;75.54
58879;BME280;44660;42.664;23.266;2023-02-28T07:39:09;95144.69;;;7.62;75.82
58879;BME280;44660;42.664;23.266;2023-02-28T07:41:35;95141.75;;;7.77;75.39
58879;BME280;44660;42.664;23.266;2023-02-28T07:44:04;95168.22;;;7.83;74.89
58879;BME280;44660;42.664;23.266;2023-02-28T07:46:30;95180.03;;;7.74;75.12
58879;BME280;44660;42.664;23.266;2023-02-28T07:49:00;95177.59;;;7.79;74.92
58879;BME280;44660;42.664;23.266;2023-02-28T07:51:31;95175.97;;;7.78;74.90
58879;BME280;44660;42.664;23.266;2023-02-28T07:53:57;95163.31;;;7.80;75.03
58879;BME280;44660;42.664;23.266;2023-02-28T07:56:22;95146.25;;;7.76;74.89
58879;BME280;44660;42.664;23.266;2023-02-28T07:58:48;95118.59;;;7.65;75.06
58879;BME280;44660;42.664;23.266;2023-02-28T08:01:14;95157.66;;;7.70;75.34
58879;BME280;44660;42.664;23.266;2023-02-28T08:03:40;95168.81;;;7.85;75.49
58879;BME280;44660;42.664;23.266;2023-02-28T08:06:08;95142.97;;;7.74;75.16
58879;BME280;44660;42.664;23.266;2023-02-28T08:08:40;95128.69;;;7.89;74.86
58879;BME280;44660;42.664;23.266;2023-02-28T08:11:06;95150.19;;;8.06;74.53
58879;BME280;44660;42.664;23.266;2023-02-28T08:13:31;95167.25;;;8.16;74.57
58879;BME280;44660;42.664;23.266;2023-02-28T08:15:57;95167.63;;;8.20;74.23
58879;BME280;44660;42.664;23.266;2023-02-28T08:18:23;95166.03;;;8.12;74.37
58879;BME280;44660;42.664;23.266;2023-02-28T08:20:48;95173.91;;;8.26;74.12
58879;BME280;44660;42.664;23.266;2023-02-28T08:23:14;95174.31;;;8.23;73.77
58879;BME280;44660;42.664;23.266;2023-02-28T08:25:39;95142.03;;;8.07;73.71
58879;BME280;44660;42.664;23.266;2023-02-28T08:28:05;95181.59;;;8.34;73.65
58879;BME280;44660;42.664;23.266;2023-02-28T08:30:30;95182.22;;;8.36;73.77
58879;BME280;44660;42.664;23.266;2023-02-28T08:32:56;95187.34;;;8.31;74.01
58879;BME280;44660;42.664;23.266;2023-02-28T08:35:22;95185.88;;;8.35;73.76
58879;BME280;44660;42.664;23.266;2023-02-28T08:37:48;95170.88;;;8.22;73.56
58879;BME280;44660;42.664;23.266;2023-02-28T08:40:14;95182.75;;;8.06;74.29
58879;BME280;44660;42.664;23.266;2023-02-28T08:42:44;95170.97;;;8.02;74.32
58879;BME280;44660;42.664;23.266;2023-02-28T08:45:11;95171.72;;;8.16;73.96
58879;BME280;44660;42.664;23.266;2023-02-28T08:47:36;95189.19;;;8.30;73.81
58879;BME280;44660;42.664;23.266;2023-02-28T08:50:03;95151.53;;;8.22;73.48
58879;BME280;44660;42.664;23.266;2023-02-28T08:52:28;95171.63;;;8.36;73.24
58879;BME280;44660;42.664;23.266;2023-02-28T08:54:54;95167.91;;;8.44;73.23
58879;BME280;44660;42.664;23.266;2023-02-28T08:57:19;95181.56;;;8.47;72.96
58879;BME280;44660;42.664;23.266;2023-02-28T08:59:45;95183.78;;;8.50;72.55
58879;BME280;44660;42.664;23.266;2023-02-28T09:02:14;95180.88;;;8.59;72.47
58879;BME280;44660;42.664;23.266;2023-02-28T09:04:40;95192.25;;;8.66;72.60
58879;BME280;44660;42.664;23.266;2023-02-28T09:07:06;95189.13;;;8.76;72.48
58879;BME280;44660;42.664;23.266;2023-02-28T09:09:31;95107.69;;;8.26;72.27
58879;BME280;44660;42.664;23.266;2023-02-28T09:11:57;95180.94;;;8.52;72.37
58879;BME280;44660;42.664;23.266;2023-02-28T09:14:22;95184.47;;;8.32;73.32
58879;BME280;44660;42.664;23.266;2023-02-28T09:16:48;95074.25;;;7.61;73.91
58879;BME280;44660;42.664;23.266;2023-02-28T09:19:14;95178.19;;;8.27;74.10
58879;BME280;44660;42.664;23.266;2023-02-28T09:21:39;95160.41;;;8.34;73.98
58879;BME280;44660;42.664;23.266;2023-02-28T09:24:05;95122.81;;;8.18;73.64
58879;BME280;44660;42.664;23.266;2023-02-28T09:26:31;95172.06;;;8.65;73.34
58879;BME280;44660;42.664;23.266;2023-02-28T09:28:57;95155.09;;;8.73;72.68
58879;BME280;44660;42.664;23.266;2023-02-28T09:31:27;95159.91;;;8.82;72.57
58879;BME280;44660;42.664;23.266;2023-02-28T09:33:55;95173.66;;;8.98;72.31
58879;BME280;44660;42.664;23.266;2023-02-28T09:36:22;95174.47;;;8.98;72.31
58879;BME280;44660;42.664;23.266;2023-02-28T09:38:47;95179.06;;;9.10;72.15
58879;BME280;44660;42.664;23.266;2023-02-28T09:41:17;95161.31;;;9.29;71.82
58879;BME280;44660;42.664;23.266;2023-02-28T09:43:47;95158.13;;;9.02;71.95
58879;BME280;44660;42.664;23.266;2023-02-28T09:48:49;95115.25;;;8.79;71.85
58879;BME280;44660;42.664;23.266;2023-02-28T09:51:28;95166.63;;;9.10;72.11
58879;BME280;44660;42.664;23.266;2023-02-28T09:53:55;95167.72;;;9.21;72.08
58879;BME280;44660;42.664;23.266;2023-02-28T09:56:25;95146.66;;;9.08;71.69
58879;BME280;44660;42.664;23.266;2023-02-28T10:02:11;95151.81;;;9.21;72.06
58879;BME280;44660;42.664;23.266;2023-02-28T10:04:48;95152.56;;;9.28;71.84
58879;BME280;44660;42.664;23.266;2023-02-28T10:09:55;95142.31;;;9.51;71.50
58879;BME280;44660;42.664;23.266;2023-02-28T10:12:25;95108.69;;;9.44;71.20
58879;BME280;44660;42.664;23.266;2023-02-28T10:14:54;95140.41;;;9.76;71.08
58879;BME280;44660;42.664;23.266;2023-02-28T10:17:26;95143.50;;;9.92;70.62
58879;BME280;44660;42.664;23.266;2023-02-28T10:22:35;95132.53;;;10.00;69.86
58879;BME280;44660;42.664;23.266;2023-02-28T10:25:16;95054.06;;;9.55;69.32
58879;BME280;44660;42.664;23.266;2023-02-28T10:27:42;95105.69;;;9.90;69.80
58879;BME280;44660;42.664;23.266;2023-02-28T10:30:12;95110.59;;;9.93;69.80
58879;BME280;44660;42.664;23.266;2023-02-28T10:32:47;95121.75;;;10.13;69.71
58879;BME280;44660;42.664;23.266;2023-02-28T10:37:46;95089.59;;;10.03;69.65
58879;BME280;44660;42.664;23.266;2023-02-28T10:45:28;95085.69;;;10.60;68.40
58879;BME280;44660;42.664;23.266;2023-02-28T10:55:36;95061.53;;;10.50;67.60
58879;BME280;44660;42.664;23.266;2023-02-28T10:58:01;95072.66;;;10.70;67.36
58879;BME280;44660;42.664;23.266;2023-02-28T11:00:33;95069.66;;;10.90;66.73
58879;BME280;44660;42.664;23.266;2023-02-28T11:02:59;95050.09;;;10.97;65.85
58879;BME280;44660;42.664;23.266;2023-02-28T11:05:35;95065.25;;;10.96;66.04
58879;BME280;44660;42.664;23.266;2023-02-28T11:08:11;95033.09;;;10.98;65.80
58879;BME280;44660;42.664;23.266;2023-02-28T11:10:38;95054.81;;;11.30;65.24
58879;BME280;44660;42.664;23.266;2023-02-28T11:13:04;95026.38;;;11.19;64.36
58879;BME280;44660;42.664;23.266;2023-02-28T11:15:32;95005.66;;;11.09;64.09
58879;BME280;44660;42.664;23.266;2023-02-28T11:20:32;95026.03;;;11.56;63.64
58879;BME280;44660;42.664;23.266;2023-02-28T11:23:00;95022.53;;;11.67;63.02
58879;BME280;44660;42.664;23.266;2023-02-28T11:25:35;95001.66;;;11.64;62.61
58879;BME280;44660;42.664;23.266;2023-02-28T11:28:04;94965.16;;;11.48;62.45
58879;BME280;44660;42.664;23.266;2023-02-28T11:32:57;95035.22;;;12.06;61.75
58879;BME280;44660;42.664;23.266;2023-02-28T11:37:51;95031.69;;;12.17;61.60
58879;BME280;44660;42.664;23.266;2023-02-28T11:40:21;94985.69;;;11.93;61.60
58879;BME280;44660;42.664;23.266;2023-02-28T11:49:32;95023.56;;;12.24;61.16
58879;BME280;44660;42.664;23.266;2023-02-28T11:52:48;95007.94;;;12.16;60.89
58879;BME280;44660;42.664;23.266;2023-02-28T11:55:35;95024.28;;;12.36;61.19
58879;BME280;44660;42.664;23.266;2023-02-28T12:01:19;94990.31;;;12.83;59.80
58879;BME280;44660;42.664;23.266;2023-02-28T12:12:02;95018.06;;;12.65;59.71
58879;BME280;44660;42.664;23.266;2023-02-28T12:15:00;95008.84;;;12.72;59.97
58879;BME280;44660;42.664;23.266;2023-02-28T12:17:37;95010.53;;;12.79;59.65
58879;BME280;44660;42.664;23.266;2023-02-28T12:20:27;95008.22;;;13.04;58.44
58879;BME280;44660;42.664;23.266;2023-02-28T12:23:21;95008.16;;;12.82;59.18
58879;BME280;44660;42.664;23.266;2023-02-28T12:28:58;95015.88;;;12.79;59.31
58879;BME280;44660;42.664;23.266;2023-02-28T12:31:33;95001.19;;;12.98;58.20
58879;BME280;44660;42.664;23.266;2023-02-28T12:34:07;95009.19;;;12.98;57.61
58879;BME280;44660;42.664;23.266;2023-02-28T12:36:36;95008.41;;;12.81;58.08
58879;BME280;44660;42.664;23.266;2023-02-28T12:39:14;95010.78;;;12.60;58.78
58879;BME280;44660;42.664;23.266;2023-02-28T12:41:53;94942.50;;;11.91;59.52
58879;BME280;44660;42.664;23.266;2023-02-28T12:44:33;94988.91;;;11.95;60.43
58879;BME280;44660;42.664;23.266;2023-02-28T12:47:05;94994.78;;;11.80;60.76
58879;BME280;44660;42.664;23.266;2023-02-28T12:52:15;94995.88;;;11.67;61.09
58879;BME280;44660;42.664;23.266;2023-02-28T12:54:50;95001.88;;;11.74;61.56
58879;BME280;44660;42.664;23.266;2023-02-28T12:57:32;94983.94;;;11.70;61.25
58879;BME280;44660;42.664;23.266;2023-02-28T13:00:19;94991.22;;;11.46;61.80
58879;BME280;44660;42.664;23.266;2023-02-28T13:05:56;95004.38;;;11.52;62.10
58879;BME280;44660;42.664;23.266;2023-02-28T13:08:51;94997.50;;;11.68;61.71
58879;BME280;44660;42.664;23.266;2023-02-28T13:11:33;94979.84;;;11.50;62.02
58879;BME280;44660;42.664;23.266;2023-02-28T13:14:05;94986.75;;;11.34;61.94
58879;BME280;44660;42.664;23.266;2023-02-28T13:16:55;95000.31;;;11.21;62.57
58879;BME280;44660;42.664;23.266;2023-02-28T13:19:24;94923.16;;;10.68;62.92
58879;BME280;44660;42.664;23.266;2023-02-28T13:21:50;94959.03;;;11.06;62.93
58879;BME280;44660;42.664;23.266;2023-02-28T13:29:36;94997.28;;;11.29;62.11
58879;BME280;44660;42.664;23.266;2023-02-28T13:34:32;94978.03;;;10.98;63.25
58879;BME280;44660;42.664;23.266;2023-02-28T13:39:55;94988.09;;;10.96;62.58
58879;BME280;44660;42.664;23.266;2023-02-28T13:47:30;94970.44;;;10.78;62.71
58879;BME280;44660;42.664;23.266;2023-02-28T13:53:00;94951.97;;;10.48;62.65
58879;BME280;44660;42.664;23.266;2023-02-28T13:55:28;94961.66;;;10.54;62.71
58879;BME280;44660;42.664;23.266;2023-02-28T14:06:30;94932.50;;;10.35;63.03
58879;BME280;44660;42.664;23.266;2023-02-28T14:09:01;94964.78;;;10.51;63.24
58879;BME280;44660;42.664;23.266;2023-02-28T14:11:40;94890.91;;;10.05;63.27
58879;BME280;44660;42.664;23.266;2023-02-28T14:14:08;94970.00;;;10.45;63.63
58879;BME280;44660;42.664;23.266;2023-02-28T14:16:40;94958.38;;;10.28;64.15
58879;BME280;44660;42.664;23.266;2023-02-28T14:19:25;94911.13;;;9.94;64.60
58879;BME280;44660;42.664;23.266;2023-02-28T14:30:29;94964.75;;;10.27;64.88
58879;BME280;44660;42.664;23.266;2023-02-28T14:36:21;94962.56;;;10.24;64.35
58879;BME280;44660;42.664;23.266;2023-02-28T14:39:16;94965.56;;;10.27;64.64
58879;BME280;44660;42.664;23.266;2023-02-28T14:41:43;94958.38;;;10.28;64.80
58879;BME280;44660;42.664;23.266;2023-02-28T14:44:25;94925.69;;;10.04;64.72
58879;BME280;44660;42.664;23.266;2023-02-28T14:46:54;94942.88;;;10.13;64.85
58879;BME280;44660;42.664;23.266;2023-02-28T14:49:46;94952.84;;;10.18;64.83
58879;BME280;44660;42.664;23.266;2023-02-28T14:52:17;94951.34;;;10.10;65.32
58879;BME280;44660;42.664;23.266;2023-02-28T14:54:44;94948.78;;;10.03;65.78
58879;BME280;44660;42.664;23.266;2023-02-28T14:57:29;94979.03;;;10.02;66.18
58879;BME280;44660;42.664;23.266;2023-02-28T14:59:59;94933.16;;;9.95;65.70
58879;BME280;44660;42.664;23.266;2023-02-28T15:02:26;94956.97;;;9.90;66.11
58879;BME280;44660;42.664;23.266;2023-02-28T15:07:20;94932.56;;;9.69;67.01
58879;BME280;44660;42.664;23.266;2023-02-28T15:10:10;94956.88;;;9.66;66.99
58879;BME280;44660;42.664;23.266;2023-02-28T15:12:36;94914.94;;;9.44;67.11
58879;BME280;44660;42.664;23.266;2023-02-28T15:15:02;94947.34;;;9.65;67.20
58879;BME280;44660;42.664;23.266;2023-02-28T15:17:29;94960.13;;;9.68;67.65
58879;BME280;44660;42.664;23.266;2023-02-28T15:19:55;94917.31;;;9.34;67.83
58879;BME280;44660;42.664;23.266;2023-02-28T15:22:28;94942.97;;;9.40;68.67
58879;BME280;44660;42.664;23.266;2023-02-28T15:24:55;94939.59;;;9.33;68.80
58879;BME280;44660;42.664;23.266;2023-02-28T15:27:25;94930.84;;;9.14;68.72
58879;BME280;44660;42.664;23.266;2023-02-28T15:29:59;94976.31;;;9.36;69.69